createdAt,value
2019-03-28T00:00:22.514Z,0.00
2019-03-28T00:01:22.514Z,0.00
2019-03-28T00:02:22.496Z,0.00
2019-03-28T00:03:22.487Z,0.00
2019-03-28T00:04:22.492Z,0.00
2019-03-28T00:05:22.459Z,0.00
2019-03-28T00:06:23.120Z,0.00
2019-03-28T00:07:24.247Z,0.00
2019-03-28T00:08:22.428Z,0.00
2019-03-28T00:09:22.420Z,0.00
2019-03-28T00:10:27.439Z,0.00
2019-03-28T00:11:22.393Z,0.00
2019-03-28T00:12:22.392Z,0.00
2019-03-28T00:13:22.368Z,0.00
2019-03-28T00:14:22.359Z,0.00
2019-03-28T00:15:22.359Z,0.00
2019-03-28T00:16:22.335Z,0.00
2019-03-28T00:17:22.324Z,0.00
2019-03-28T00:18:22.314Z,0.00
2019-03-28T00:19:22.301Z,0.00
2019-03-28T00:20:22.342Z,0.00
2019-03-28T00:21:27.298Z,0.00
2019-03-28T00:22:22.268Z,0.00
2019-03-28T00:23:22.261Z,0.00
2019-03-28T00:24:22.329Z,0.00
2019-03-28T00:25:22.247Z,0.00
2019-03-28T00:26:30.198Z,0.00
2019-03-28T00:27:23.216Z,0.00
2019-03-28T00:28:22.202Z,0.00
2019-03-28T00:29:22.190Z,0.00
2019-03-28T00:30:22.188Z,0.00
2019-03-28T00:31:22.224Z,0.00
2019-03-28T00:32:27.187Z,0.00
2019-03-28T00:33:22.145Z,0.00
2019-03-28T00:34:22.129Z,0.00
2019-03-28T00:35:22.155Z,0.00
2019-03-28T00:36:22.106Z,0.00
2019-03-28T00:37:22.097Z,0.00
2019-03-28T00:38:22.085Z,0.00
2019-03-28T00:39:22.072Z,0.00
2019-03-28T00:40:22.077Z,0.00
2019-03-28T00:41:22.054Z,0.00
2019-03-28T00:42:22.040Z,0.00
2019-03-28T00:43:27.056Z,0.00
2019-03-28T00:44:22.039Z,0.00
2019-03-28T00:45:22.017Z,0.00
2019-03-28T00:46:21.995Z,0.00
2019-03-28T00:47:21.989Z,0.00
2019-03-28T00:48:21.972Z,0.00
2019-03-28T00:49:21.961Z,0.00
2019-03-28T00:50:21.961Z,0.00
2019-03-28T00:51:21.938Z,0.00
2019-03-28T00:52:21.928Z,0.00
2019-03-28T00:53:21.913Z,0.00
2019-03-28T00:54:26.924Z,0.00
2019-03-28T00:55:21.903Z,0.00
2019-03-28T00:56:21.882Z,0.00
2019-03-28T00:57:21.870Z,0.00
2019-03-28T00:58:21.857Z,0.00
2019-03-28T00:59:21.845Z,0.00
2019-03-28T01:00:21.847Z,0.00
2019-03-28T01:01:21.828Z,0.00
2019-03-28T01:02:21.812Z,0.00
2019-03-28T01:03:21.803Z,0.00
2019-03-28T01:04:21.797Z,0.00
2019-03-28T01:05:26.818Z,0.00
2019-03-28T01:06:21.766Z,0.00
2019-03-28T01:07:22.109Z,0.00
2019-03-28T01:08:21.745Z,0.00
2019-03-28T01:09:21.730Z,0.00
2019-03-28T01:10:22.207Z,0.00
2019-03-28T01:11:21.708Z,0.00
2019-03-28T01:12:21.700Z,0.00
2019-03-28T01:13:21.691Z,0.00
2019-03-28T01:14:21.675Z,0.00
2019-03-28T01:15:21.681Z,0.00
2019-03-28T01:16:26.675Z,0.00
2019-03-28T01:17:21.646Z,0.00
2019-03-28T01:18:21.631Z,0.00
2019-03-28T01:19:21.617Z,0.00
2019-03-28T01:20:21.615Z,0.00
2019-03-28T01:21:21.595Z,0.00
2019-03-28T01:22:21.584Z,0.00
2019-03-28T01:23:21.574Z,0.00
2019-03-28T01:24:21.566Z,0.00
2019-03-28T01:25:21.593Z,0.00
2019-03-28T01:26:21.550Z,0.00
2019-03-28T01:27:26.552Z,0.00
2019-03-28T01:28:21.518Z,0.00
2019-03-28T01:29:21.505Z,0.00
2019-03-28T01:30:22.221Z,0.00
2019-03-28T01:31:21.483Z,0.00
2019-03-28T01:32:21.471Z,0.00
2019-03-28T01:33:21.459Z,0.00
2019-03-28T01:34:21.448Z,0.00
2019-03-28T01:35:21.451Z,0.00
2019-03-28T01:36:21.434Z,0.00
2019-03-28T01:37:21.423Z,0.00
2019-03-28T01:38:26.425Z,0.00
2019-03-28T01:39:21.394Z,0.00
2019-03-28T01:40:21.404Z,0.00
2019-03-28T01:41:21.370Z,0.00
2019-03-28T01:42:21.359Z,0.00
2019-03-28T01:43:21.360Z,0.00
2019-03-28T01:44:21.342Z,0.00
2019-03-28T01:45:21.341Z,0.00
2019-03-28T01:46:21.319Z,0.00
2019-03-28T01:47:21.308Z,0.00
2019-03-28T01:48:21.293Z,0.00
2019-03-28T01:49:26.302Z,0.00
2019-03-28T01:50:21.288Z,0.00
2019-03-28T01:51:21.261Z,0.00
2019-03-28T01:52:21.422Z,0.00
2019-03-28T01:53:21.249Z,0.00
2019-03-28T01:54:21.225Z,0.00
2019-03-28T01:55:22.185Z,0.00
2019-03-28T01:56:21.210Z,0.00
2019-03-28T01:57:21.193Z,0.00
2019-03-28T01:58:21.179Z,0.00
2019-03-28T01:59:21.298Z,0.00
2019-03-28T02:00:26.195Z,0.00
2019-03-28T02:01:21.154Z,0.00
2019-03-28T02:02:21.137Z,0.00
2019-03-28T02:03:21.124Z,0.00
2019-03-28T02:04:21.114Z,0.00
2019-03-28T02:05:21.167Z,0.00
2019-03-28T02:06:21.104Z,0.00
2019-03-28T02:07:21.112Z,0.00
2019-03-28T02:08:21.075Z,0.00
2019-03-28T02:09:21.061Z,0.00
2019-03-28T02:10:21.058Z,0.00
2019-03-28T02:11:26.063Z,0.00
2019-03-28T02:12:21.022Z,0.00
2019-03-28T02:13:21.018Z,0.00
2019-03-28T02:14:21.010Z,0.00
2019-03-28T02:15:21.002Z,0.00
2019-03-28T02:16:21.473Z,0.00
2019-03-28T02:17:20.967Z,0.00
2019-03-28T02:18:20.958Z,0.00
2019-03-28T02:19:20.955Z,0.00
2019-03-28T02:20:20.957Z,0.00
2019-03-28T02:21:20.929Z,0.00
2019-03-28T02:22:25.934Z,0.00
2019-03-28T02:23:20.911Z,0.00
2019-03-28T02:24:20.889Z,0.00
2019-03-28T02:25:20.894Z,0.00
2019-03-28T02:26:20.868Z,0.00
2019-03-28T02:27:24.223Z,0.00
2019-03-28T02:28:20.845Z,0.00
2019-03-28T02:29:20.835Z,0.00
2019-03-28T02:30:20.838Z,0.00
2019-03-28T02:31:20.813Z,0.00
2019-03-28T02:32:20.866Z,0.00
2019-03-28T02:33:25.813Z,0.00
2019-03-28T02:34:20.780Z,0.00
2019-03-28T02:35:20.780Z,0.00
2019-03-28T02:36:20.756Z,0.00
2019-03-28T02:37:20.746Z,0.00
2019-03-28T02:38:20.740Z,0.00
2019-03-28T02:39:20.726Z,0.00
2019-03-28T02:40:20.724Z,0.00
2019-03-28T02:41:20.701Z,0.00
2019-03-28T02:42:20.696Z,0.00
2019-03-28T02:43:20.739Z,0.00
2019-03-28T02:44:25.734Z,0.00
2019-03-28T02:45:20.666Z,0.00
2019-03-28T02:46:20.644Z,0.00
2019-03-28T02:47:20.718Z,0.00
2019-03-28T02:48:20.654Z,0.00
2019-03-28T02:49:20.611Z,0.00
2019-03-28T02:50:20.619Z,0.00
2019-03-28T02:51:20.599Z,0.00
2019-03-28T02:52:21.526Z,0.00
2019-03-28T02:53:20.615Z,0.00
2019-03-28T02:54:20.564Z,0.00
2019-03-28T02:55:25.579Z,0.00
2019-03-28T02:56:20.534Z,0.00
2019-03-28T02:57:20.521Z,0.00
2019-03-28T02:58:20.514Z,0.00
2019-03-28T02:59:20.503Z,0.00
2019-03-28T03:00:20.998Z,0.00
2019-03-28T03:01:20.484Z,0.00
2019-03-28T03:02:20.482Z,0.00
2019-03-28T03:03:20.465Z,0.00
2019-03-28T03:04:20.530Z,0.00
2019-03-28T03:05:20.491Z,0.00
2019-03-28T03:06:25.458Z,0.00
2019-03-28T03:07:20.424Z,0.00
2019-03-28T03:08:20.437Z,0.00
2019-03-28T03:09:20.398Z,0.00
2019-03-28T03:10:20.472Z,0.00
2019-03-28T03:11:20.382Z,0.00
2019-03-28T03:12:20.354Z,0.00
2019-03-28T03:13:20.357Z,0.00
2019-03-28T03:14:20.344Z,0.00
2019-03-28T03:15:20.332Z,0.00
2019-03-28T03:16:20.335Z,0.00
2019-03-28T03:17:25.329Z,0.00
2019-03-28T03:18:21.549Z,0.00
2019-03-28T03:19:20.279Z,0.00
2019-03-28T03:20:20.265Z,0.00
2019-03-28T03:21:20.267Z,0.00
2019-03-28T03:22:20.342Z,0.00
2019-03-28T03:23:20.416Z,0.00
2019-03-28T03:24:20.226Z,0.00
2019-03-28T03:25:20.207Z,0.00
2019-03-28T03:26:20.209Z,0.00
2019-03-28T03:27:20.203Z,0.00
2019-03-28T03:28:25.199Z,0.00
2019-03-28T03:29:20.173Z,0.00
2019-03-28T03:30:20.157Z,0.00
2019-03-28T03:31:21.359Z,0.00
2019-03-28T03:32:20.140Z,0.00
2019-03-28T03:33:20.185Z,0.00
2019-03-28T03:34:20.148Z,0.00
2019-03-28T03:35:20.110Z,0.00
2019-03-28T03:36:20.103Z,0.00
2019-03-28T03:37:20.074Z,0.00
2019-03-28T03:38:20.066Z,0.00
2019-03-28T03:39:25.101Z,0.00
2019-03-28T03:40:20.041Z,0.00
2019-03-28T03:41:20.058Z,0.00
2019-03-28T03:42:20.110Z,0.00
2019-03-28T03:43:20.014Z,0.00
2019-03-28T03:44:20.035Z,0.00
2019-03-28T03:45:20.008Z,0.00
2019-03-28T03:46:19.992Z,0.00
2019-03-28T03:47:19.979Z,0.00
2019-03-28T03:48:19.958Z,0.00
2019-03-28T03:49:19.948Z,0.00
2019-03-28T03:50:24.950Z,0.00
2019-03-28T03:51:19.936Z,0.00
2019-03-28T03:52:19.917Z,0.00
2019-03-28T03:53:19.893Z,0.00
2019-03-28T03:54:19.886Z,0.00
2019-03-28T03:55:19.885Z,0.00
2019-03-28T03:56:19.878Z,0.00
2019-03-28T03:57:19.865Z,0.00
2019-03-28T03:58:19.853Z,0.00
2019-03-28T03:59:19.840Z,0.00
2019-03-28T04:00:19.825Z,0.00
2019-03-28T04:01:24.843Z,0.00
2019-03-28T04:02:19.797Z,0.00
2019-03-28T04:03:19.785Z,0.00
2019-03-28T04:04:19.782Z,0.00
2019-03-28T04:05:19.767Z,0.00
2019-03-28T04:06:19.769Z,0.00
2019-03-28T04:07:19.737Z,0.00
2019-03-28T04:08:19.748Z,0.00
2019-03-28T04:09:19.731Z,0.00
2019-03-28T04:10:19.742Z,0.00
2019-03-28T04:11:19.710Z,0.00
2019-03-28T04:12:24.704Z,0.00
2019-03-28T04:13:19.674Z,0.00
2019-03-28T04:14:19.672Z,0.00
2019-03-28T04:15:19.650Z,0.00
2019-03-28T04:16:19.654Z,0.00
2019-03-28T04:17:19.626Z,0.00
2019-03-28T04:18:22.071Z,0.00
2019-03-28T04:19:19.609Z,0.00
2019-03-28T04:20:19.596Z,0.00
2019-03-28T04:21:19.593Z,0.00
2019-03-28T04:22:19.575Z,0.00
2019-03-28T04:23:24.607Z,0.00
2019-03-28T04:24:19.808Z,0.00
2019-03-28T04:25:19.548Z,0.00
2019-03-28T04:26:19.554Z,0.00
2019-03-28T04:27:19.521Z,0.00
2019-03-28T04:28:31.503Z,0.00
2019-03-28T04:29:20.492Z,0.00
2019-03-28T04:30:19.513Z,0.00
2019-03-28T04:31:19.488Z,0.00
2019-03-28T04:32:20.574Z,0.00
2019-03-28T04:33:19.444Z,0.00
2019-03-28T04:34:24.455Z,0.00
2019-03-28T04:35:19.429Z,0.00
2019-03-28T04:36:19.429Z,0.00
2019-03-28T04:37:19.401Z,0.00
2019-03-28T04:38:19.403Z,0.00
2019-03-28T04:39:19.376Z,0.00
2019-03-28T04:40:19.367Z,0.00
2019-03-28T04:41:19.364Z,0.00
2019-03-28T04:42:19.475Z,0.00
2019-03-28T04:43:19.335Z,0.00
2019-03-28T04:44:19.367Z,0.00
2019-03-28T04:45:24.333Z,0.00
2019-03-28T04:46:19.706Z,0.00
2019-03-28T04:47:19.286Z,0.00
2019-03-28T04:48:19.280Z,0.00
2019-03-28T04:49:19.265Z,0.00
2019-03-28T04:50:19.251Z,0.00
2019-03-28T04:51:19.255Z,0.00
2019-03-28T04:52:19.434Z,0.00
2019-03-28T04:53:19.225Z,0.00
2019-03-28T04:54:19.214Z,0.00
2019-03-28T04:55:19.200Z,0.00
2019-03-28T04:56:24.223Z,0.00
2019-03-28T04:57:19.236Z,0.00
2019-03-28T04:58:21.788Z,0.00
2019-03-28T04:59:19.160Z,0.00
2019-03-28T05:00:19.141Z,0.00
2019-03-28T05:01:19.146Z,0.00
2019-03-28T05:02:19.117Z,0.00
2019-03-28T05:03:19.142Z,0.00
2019-03-28T05:04:21.129Z,0.00
2019-03-28T05:05:19.082Z,0.00
2019-03-28T05:06:19.091Z,0.00
2019-03-28T05:07:24.152Z,0.00
2019-03-28T05:08:19.049Z,0.00
2019-03-28T05:09:19.041Z,0.00
2019-03-28T05:10:19.028Z,0.00
2019-03-28T05:11:19.032Z,0.00
2019-03-28T05:12:19.101Z,5.62
2019-03-28T05:13:19.096Z,5.62
2019-03-28T05:14:18.984Z,5.62
2019-03-28T05:15:20.346Z,5.62
2019-03-28T05:16:18.986Z,5.62
2019-03-28T05:17:19.011Z,5.62
2019-03-28T05:18:23.958Z,5.62
2019-03-28T05:19:18.927Z,5.62
2019-03-28T05:20:18.915Z,11.25
2019-03-28T05:21:18.916Z,11.25
2019-03-28T05:22:18.895Z,11.25
2019-03-28T05:23:18.936Z,11.25
2019-03-28T05:24:18.877Z,11.25
2019-03-28T05:25:18.862Z,11.25
2019-03-28T05:26:18.863Z,16.88
2019-03-28T05:27:18.840Z,16.88
2019-03-28T05:28:18.830Z,16.88
2019-03-28T05:29:23.844Z,16.88
2019-03-28T05:30:18.802Z,16.88
2019-03-28T05:31:18.803Z,22.50
2019-03-28T05:32:18.788Z,22.50
2019-03-28T05:33:18.772Z,22.50
2019-03-28T05:34:18.809Z,22.50
2019-03-28T05:35:18.751Z,28.12
2019-03-28T05:36:18.769Z,28.12
2019-03-28T05:37:18.725Z,28.12
2019-03-28T05:38:18.728Z,28.12
2019-03-28T05:39:19.561Z,28.12
2019-03-28T05:40:23.718Z,33.75
2019-03-28T05:41:18.709Z,33.75
2019-03-28T05:42:18.668Z,33.75
2019-03-28T05:43:18.658Z,33.75
2019-03-28T05:44:18.645Z,33.75
2019-03-28T05:45:18.651Z,33.75
2019-03-28T05:46:18.658Z,33.75
2019-03-28T05:47:18.620Z,33.75
2019-03-28T05:48:18.604Z,33.75
2019-03-28T05:49:18.590Z,33.75
2019-03-28T05:50:18.577Z,33.75
2019-03-28T05:51:23.633Z,33.75
2019-03-28T05:52:18.561Z,33.75
2019-03-28T05:53:18.547Z,33.75
2019-03-28T05:54:18.534Z,39.38
2019-03-28T05:55:18.521Z,39.38
2019-03-28T05:56:18.543Z,39.38
2019-03-28T05:57:18.498Z,39.38
2019-03-28T05:58:18.546Z,39.38
2019-03-28T05:59:19.429Z,39.38
2019-03-28T06:00:18.467Z,39.38
2019-03-28T06:01:18.470Z,45.00
2019-03-28T06:02:24.327Z,45.00
2019-03-28T06:03:18.432Z,45.00
2019-03-28T06:04:18.421Z,45.00
2019-03-28T06:05:18.410Z,45.00
2019-03-28T06:06:18.498Z,50.62
2019-03-28T06:07:18.389Z,50.62
2019-03-28T06:08:18.379Z,50.62
2019-03-28T06:09:19.283Z,50.62
2019-03-28T06:10:18.352Z,56.25
2019-03-28T06:11:18.354Z,56.25
2019-03-28T06:12:19.214Z,56.25
2019-03-28T06:13:23.341Z,61.88
2019-03-28T06:14:18.307Z,61.88
2019-03-28T06:15:18.297Z,56.25
2019-03-28T06:16:18.311Z,61.88
2019-03-28T06:17:18.276Z,61.88
2019-03-28T06:18:18.264Z,61.88
2019-03-28T06:19:18.251Z,61.88
2019-03-28T06:20:18.243Z,61.88
2019-03-28T06:21:18.231Z,61.88
2019-03-28T06:22:18.229Z,67.50
2019-03-28T06:23:18.206Z,67.50
2019-03-28T06:24:23.218Z,67.50
2019-03-28T06:25:18.183Z,67.50
2019-03-28T06:26:18.177Z,67.50
2019-03-28T06:27:18.187Z,67.50
2019-03-28T06:28:18.152Z,67.50
2019-03-28T06:29:23.599Z,73.12
2019-03-28T06:30:19.133Z,73.12
2019-03-28T06:31:18.117Z,78.75
2019-03-28T06:32:18.117Z,78.75
2019-03-28T06:33:18.113Z,84.38
2019-03-28T06:34:18.086Z,84.38
2019-03-28T06:35:23.155Z,84.38
2019-03-28T06:36:18.091Z,84.38
2019-03-28T06:37:18.060Z,84.38
2019-03-28T06:38:18.048Z,84.38
2019-03-28T06:39:18.030Z,90.00
2019-03-28T06:40:18.017Z,95.62
2019-03-28T06:41:18.006Z,101.25
2019-03-28T06:42:18.004Z,95.62
2019-03-28T06:43:17.982Z,95.62
2019-03-28T06:44:17.987Z,95.62
2019-03-28T06:45:17.962Z,95.62
2019-03-28T06:46:22.974Z,101.25
2019-03-28T06:47:20.922Z,101.25
2019-03-28T06:48:17.926Z,112.50
2019-03-28T06:49:17.915Z,106.88
2019-03-28T06:50:17.903Z,112.50
2019-03-28T06:51:17.891Z,112.50
2019-03-28T06:52:17.893Z,118.12
2019-03-28T06:53:17.869Z,118.12
2019-03-28T06:54:17.860Z,123.75
2019-03-28T06:55:17.851Z,129.38
2019-03-28T06:56:17.859Z,129.38
2019-03-28T06:57:22.874Z,129.38
2019-03-28T06:58:17.812Z,135.00
2019-03-28T06:59:17.804Z,135.00
2019-03-28T07:00:17.808Z,135.00
2019-03-28T07:01:17.784Z,135.00
2019-03-28T07:02:17.783Z,140.62
2019-03-28T07:03:17.755Z,140.62
2019-03-28T07:04:17.746Z,146.25
2019-03-28T07:05:17.736Z,146.25
2019-03-28T07:06:17.723Z,151.88
2019-03-28T07:07:18.570Z,157.50
2019-03-28T07:08:22.723Z,168.75
2019-03-28T07:09:18.292Z,168.75
2019-03-28T07:10:17.684Z,180.00
2019-03-28T07:11:17.669Z,191.25
2019-03-28T07:12:18.404Z,202.50
2019-03-28T07:13:17.649Z,213.75
2019-03-28T07:14:17.635Z,225.00
2019-03-28T07:15:17.624Z,236.25
2019-03-28T07:16:17.612Z,247.50
2019-03-28T07:17:17.614Z,264.38
2019-03-28T07:18:17.593Z,270.00
2019-03-28T07:19:22.614Z,281.25
2019-03-28T07:20:17.569Z,298.12
2019-03-28T07:21:18.267Z,331.88
2019-03-28T07:22:17.555Z,360.00
2019-03-28T07:23:17.537Z,354.38
2019-03-28T07:24:17.533Z,365.62
2019-03-28T07:25:17.513Z,298.12
2019-03-28T07:26:17.507Z,258.75
2019-03-28T07:27:17.576Z,253.12
2019-03-28T07:28:17.511Z,241.88
2019-03-28T07:29:17.463Z,241.88
2019-03-28T07:30:22.486Z,258.75
2019-03-28T07:31:17.442Z,258.75
2019-03-28T07:32:17.443Z,253.12
2019-03-28T07:33:17.421Z,270.00
2019-03-28T07:34:17.415Z,281.25
2019-03-28T07:35:17.407Z,286.88
2019-03-28T07:36:17.470Z,292.50
2019-03-28T07:37:17.392Z,303.75
2019-03-28T07:38:17.368Z,320.62
2019-03-28T07:39:19.094Z,360.00
2019-03-28T07:40:17.343Z,376.88
2019-03-28T07:41:22.369Z,393.75
2019-03-28T07:42:17.343Z,399.38
2019-03-28T07:43:17.306Z,382.50
2019-03-28T07:44:17.303Z,365.62
2019-03-28T07:45:17.289Z,376.88
2019-03-28T07:46:17.285Z,360.00
2019-03-28T07:47:17.277Z,410.62
2019-03-28T07:48:17.256Z,455.62
2019-03-28T07:49:17.461Z,388.12
2019-03-28T07:50:17.299Z,382.50
2019-03-28T07:51:17.223Z,489.38
2019-03-28T07:52:22.238Z,427.50
2019-03-28T07:53:19.735Z,455.62
2019-03-28T07:54:17.193Z,427.50
2019-03-28T07:55:17.195Z,433.12
2019-03-28T07:56:17.170Z,421.88
2019-03-28T07:57:17.177Z,438.75
2019-03-28T07:58:17.152Z,534.38
2019-03-28T07:59:17.127Z,410.62
2019-03-28T08:00:17.115Z,303.75
2019-03-28T08:01:18.220Z,270.00
2019-03-28T08:02:17.108Z,292.50
2019-03-28T08:03:22.102Z,292.50
2019-03-28T08:04:17.074Z,281.25
2019-03-28T08:05:17.110Z,298.12
2019-03-28T08:06:17.047Z,286.88
2019-03-28T08:07:17.047Z,286.88
2019-03-28T08:08:17.028Z,258.75
2019-03-28T08:09:17.700Z,230.62
2019-03-28T08:10:17.108Z,241.88
2019-03-28T08:11:17.057Z,230.62
2019-03-28T08:12:23.063Z,230.62
2019-03-28T08:13:17.977Z,270.00
2019-03-28T08:14:21.984Z,416.25
2019-03-28T08:15:16.945Z,590.62
2019-03-28T08:16:16.960Z,641.25
2019-03-28T08:17:16.933Z,652.50
2019-03-28T08:18:16.948Z,478.12
2019-03-28T08:19:16.907Z,466.88
2019-03-28T08:20:16.889Z,421.88
2019-03-28T08:21:16.876Z,433.12
2019-03-28T08:22:16.878Z,410.62
2019-03-28T08:23:16.857Z,376.88
2019-03-28T08:24:16.859Z,416.25
2019-03-28T08:25:21.865Z,343.12
2019-03-28T08:26:16.820Z,376.88
2019-03-28T08:27:17.153Z,444.38
2019-03-28T08:28:16.823Z,382.50
2019-03-28T08:29:16.793Z,388.12
2019-03-28T08:30:19.268Z,371.25
2019-03-28T08:31:16.842Z,376.88
2019-03-28T08:32:16.783Z,388.12
2019-03-28T08:33:16.756Z,444.38
2019-03-28T08:34:16.731Z,461.25
2019-03-28T08:35:16.723Z,427.50
2019-03-28T08:36:21.736Z,416.25
2019-03-28T08:37:16.812Z,405.00
2019-03-28T08:38:16.687Z,427.50
2019-03-28T08:39:16.678Z,455.62
2019-03-28T08:40:16.665Z,450.00
2019-03-28T08:41:16.653Z,466.88
2019-03-28T08:42:16.664Z,495.00
2019-03-28T08:43:16.636Z,511.88
2019-03-28T08:44:16.620Z,495.00
2019-03-28T08:45:16.613Z,489.38
2019-03-28T08:46:16.597Z,601.88
2019-03-28T08:47:21.626Z,585.00
2019-03-28T08:48:16.577Z,568.12
2019-03-28T08:49:16.562Z,635.62
2019-03-28T08:50:16.562Z,534.38
2019-03-28T08:51:16.551Z,500.62
2019-03-28T08:52:16.552Z,562.50
2019-03-28T08:53:16.695Z,534.38
2019-03-28T08:54:16.513Z,635.62
2019-03-28T08:55:16.497Z,573.75
2019-03-28T08:56:16.485Z,568.12
2019-03-28T08:57:16.671Z,596.25
2019-03-28T08:58:21.495Z,573.75
2019-03-28T08:59:16.455Z,573.75
2019-03-28T09:00:17.088Z,562.50
2019-03-28T09:01:16.438Z,630.00
2019-03-28T09:02:16.509Z,635.62
2019-03-28T09:03:16.486Z,652.50
2019-03-28T09:04:16.392Z,652.50
2019-03-28T09:05:16.394Z,624.38
2019-03-28T09:06:17.187Z,669.38
2019-03-28T09:07:17.580Z,669.38
2019-03-28T09:08:16.368Z,624.38
2019-03-28T09:09:21.545Z,613.12
2019-03-28T09:10:16.341Z,618.75
2019-03-28T09:11:16.311Z,618.75
2019-03-28T09:12:16.300Z,663.75
2019-03-28T09:13:16.302Z,613.12
2019-03-28T09:14:16.282Z,618.75
2019-03-28T09:15:16.345Z,635.62
2019-03-28T09:16:16.274Z,624.38
2019-03-28T09:17:16.245Z,635.62
2019-03-28T09:18:16.245Z,663.75
2019-03-28T09:19:16.222Z,658.12
2019-03-28T09:20:21.244Z,635.62
2019-03-28T09:21:16.213Z,658.12
2019-03-28T09:22:16.187Z,691.88
2019-03-28T09:23:16.234Z,697.50
2019-03-28T09:24:16.170Z,652.50
2019-03-28T09:25:16.155Z,663.75
2019-03-28T09:26:16.164Z,613.12
2019-03-28T09:27:16.171Z,646.88
2019-03-28T09:28:16.153Z,652.50
2019-03-28T09:29:16.109Z,669.38
2019-03-28T09:30:16.097Z,641.25
2019-03-28T09:31:21.110Z,652.50
2019-03-28T09:32:16.074Z,669.38
2019-03-28T09:33:16.082Z,691.88
2019-03-28T09:34:16.053Z,731.25
2019-03-28T09:35:16.038Z,765.00
2019-03-28T09:36:16.034Z,843.75
2019-03-28T09:37:16.018Z,871.88
2019-03-28T09:38:16.022Z,826.88
2019-03-28T09:39:15.999Z,832.50
2019-03-28T09:40:16.008Z,928.12
2019-03-28T09:41:15.974Z,1057.50
2019-03-28T09:42:20.981Z,1636.88
2019-03-28T09:43:15.973Z,1406.25
2019-03-28T09:44:15.938Z,1788.75
2019-03-28T09:45:15.939Z,1023.75
2019-03-28T09:46:15.915Z,1130.62
2019-03-28T09:47:15.906Z,1153.12
2019-03-28T09:48:15.907Z,1057.50
2019-03-28T09:49:15.895Z,1108.12
2019-03-28T09:50:15.870Z,1530.00
2019-03-28T09:51:15.860Z,1293.75
2019-03-28T09:52:15.853Z,1158.75
2019-03-28T09:53:20.877Z,1147.50
2019-03-28T09:54:15.826Z,1029.38
2019-03-28T09:55:18.726Z,1186.88
2019-03-28T09:56:15.803Z,1113.75
2019-03-28T09:57:15.794Z,1406.25
2019-03-28T09:58:15.806Z,1271.25
2019-03-28T09:59:15.776Z,1715.62
2019-03-28T10:00:15.761Z,1260.00
2019-03-28T10:01:15.743Z,1344.38
2019-03-28T10:02:15.779Z,1102.50
2019-03-28T10:03:15.735Z,1035.00
2019-03-28T10:04:20.736Z,1125.00
2019-03-28T10:05:15.699Z,1113.75
2019-03-28T10:06:15.688Z,1051.88
2019-03-28T10:07:15.675Z,1057.50
2019-03-28T10:08:15.678Z,1170.00
2019-03-28T10:09:15.660Z,1597.50
2019-03-28T10:10:15.657Z,1265.62
2019-03-28T10:11:15.723Z,1136.25
2019-03-28T10:12:15.625Z,1226.25
2019-03-28T10:13:15.636Z,1175.62
2019-03-28T10:14:15.599Z,1012.50
2019-03-28T10:15:20.609Z,950.62
2019-03-28T10:16:15.581Z,933.75
2019-03-28T10:17:15.578Z,1203.75
2019-03-28T10:18:15.595Z,1428.75
2019-03-28T10:19:15.544Z,1462.50
2019-03-28T10:20:15.529Z,1085.62
2019-03-28T10:21:15.532Z,1243.12
2019-03-28T10:22:15.522Z,1186.88
2019-03-28T10:23:15.506Z,1445.62
2019-03-28T10:24:15.486Z,1366.88
2019-03-28T10:25:15.473Z,1288.12
2019-03-28T10:26:20.489Z,1299.38
2019-03-28T10:27:15.464Z,1417.50
2019-03-28T10:28:15.597Z,1462.50
2019-03-28T10:29:15.440Z,1490.62
2019-03-28T10:30:15.417Z,1603.12
2019-03-28T10:31:16.910Z,1535.62
2019-03-28T10:32:15.393Z,1625.62
2019-03-28T10:33:15.397Z,1406.25
2019-03-28T10:34:15.373Z,2311.88
2019-03-28T10:35:15.381Z,2255.62
2019-03-28T10:36:15.350Z,1546.88
2019-03-28T10:37:20.366Z,866.25
2019-03-28T10:38:15.339Z,483.75
2019-03-28T10:39:15.334Z,399.38
2019-03-28T10:40:15.302Z,405.00
2019-03-28T10:41:15.296Z,781.88
2019-03-28T10:42:15.281Z,2025.00
2019-03-28T10:43:15.294Z,2373.75
2019-03-28T10:44:15.261Z,2115.00
2019-03-28T10:45:15.250Z,2368.12
2019-03-28T10:46:15.246Z,2199.38
2019-03-28T10:47:15.224Z,2019.38
2019-03-28T10:48:23.383Z,1665.00
2019-03-28T10:49:15.811Z,1715.62
2019-03-28T10:50:15.199Z,1957.50
2019-03-28T10:51:15.180Z,2356.88
2019-03-28T10:52:15.175Z,2666.25
2019-03-28T10:53:15.181Z,2497.50
2019-03-28T10:54:20.488Z,2424.38
2019-03-28T10:55:16.754Z,1372.50
2019-03-28T10:56:22.044Z,1462.50
2019-03-28T10:57:29.617Z,2058.75
2019-03-28T10:58:19.166Z,2126.25
2019-03-28T10:59:23.684Z,2283.75
2019-03-28T11:00:23.934Z,2205.00
2019-03-28T11:01:18.170Z,1738.12
2019-03-28T11:02:16.056Z,1788.75
2019-03-28T11:03:15.046Z,2160.00
2019-03-28T11:04:15.047Z,1895.62
2019-03-28T11:05:15.023Z,1170.00
2019-03-28T11:06:15.013Z,1276.88
2019-03-28T11:07:15.001Z,1811.25
2019-03-28T11:08:15.034Z,1991.25
2019-03-28T11:09:14.989Z,1738.12
2019-03-28T11:10:19.994Z,1440.00
2019-03-28T11:11:14.954Z,1085.62
2019-03-28T11:12:14.950Z,1158.75
2019-03-28T11:13:14.944Z,1620.00
2019-03-28T11:14:14.935Z,1715.62
2019-03-28T11:15:14.914Z,1485.00
2019-03-28T11:16:15.345Z,1417.50
2019-03-28T11:17:14.892Z,1659.38
2019-03-28T11:18:14.891Z,2143.12
2019-03-28T11:19:15.951Z,1541.25
2019-03-28T11:20:14.857Z,871.88
2019-03-28T11:21:19.861Z,1378.12
2019-03-28T11:22:14.832Z,1665.00
2019-03-28T11:23:14.828Z,1440.00
2019-03-28T11:24:14.816Z,1653.75
2019-03-28T11:25:14.791Z,1665.00
2019-03-28T11:26:14.784Z,945.00
2019-03-28T11:27:14.771Z,838.12
2019-03-28T11:28:15.759Z,1276.88
2019-03-28T11:29:14.761Z,1552.50
2019-03-28T11:30:18.190Z,1344.38
2019-03-28T11:31:14.728Z,708.75
2019-03-28T11:32:19.742Z,410.62
2019-03-28T11:33:14.709Z,360.00
2019-03-28T11:34:14.933Z,399.38
2019-03-28T11:35:14.684Z,1316.25
2019-03-28T11:36:14.671Z,663.75
2019-03-28T11:37:25.380Z,1726.88
2019-03-28T11:38:15.653Z,1867.50
2019-03-28T11:39:14.659Z,1980.00
2019-03-28T11:40:14.629Z,1456.88
2019-03-28T11:41:14.654Z,1940.62
2019-03-28T11:42:14.608Z,2334.38
2019-03-28T11:43:19.731Z,855.00
2019-03-28T11:44:14.604Z,2666.25
2019-03-28T11:45:14.574Z,2677.50
2019-03-28T11:46:14.564Z,2255.62
2019-03-28T11:47:14.562Z,1693.12
2019-03-28T11:48:14.536Z,1175.62
2019-03-28T11:49:14.537Z,601.88
2019-03-28T11:50:17.086Z,607.50
2019-03-28T11:51:14.514Z,483.75
2019-03-28T11:52:14.492Z,579.38
2019-03-28T11:53:14.486Z,646.88
2019-03-28T11:54:19.519Z,1057.50
2019-03-28T11:55:14.459Z,1366.88
2019-03-28T11:56:14.448Z,1496.25
2019-03-28T11:57:15.910Z,1445.62
2019-03-28T11:58:14.443Z,635.62
2019-03-28T11:59:14.425Z,1023.75
2019-03-28T12:00:14.411Z,1929.38
2019-03-28T12:01:14.442Z,2019.38
2019-03-28T12:02:20.129Z,1248.75
2019-03-28T12:03:15.372Z,1490.62
2019-03-28T12:04:14.370Z,1693.12
2019-03-28T12:05:19.375Z,2238.75
2019-03-28T12:06:14.337Z,2700.00
2019-03-28T12:07:14.328Z,2728.12
2019-03-28T12:08:14.320Z,2857.50
2019-03-28T12:09:14.316Z,2643.75
2019-03-28T12:10:14.290Z,2385.00
2019-03-28T12:11:14.291Z,2773.12
2019-03-28T12:12:14.270Z,2536.88
2019-03-28T12:13:14.263Z,2767.50
2019-03-28T12:14:14.264Z,2587.50
2019-03-28T12:15:14.240Z,804.38
2019-03-28T12:16:19.246Z,2694.38
2019-03-28T12:17:14.224Z,2705.62
2019-03-28T12:18:14.201Z,590.62
2019-03-28T12:19:17.550Z,523.12
2019-03-28T12:20:14.177Z,528.75
2019-03-28T12:21:14.167Z,1766.25
2019-03-28T12:22:14.155Z,523.12
2019-03-28T12:23:14.145Z,2070.00
2019-03-28T12:24:14.150Z,2671.88
2019-03-28T12:25:14.155Z,2784.38
2019-03-28T12:26:14.115Z,2643.75
2019-03-28T12:27:19.124Z,2745.00
2019-03-28T12:28:14.093Z,2823.75
2019-03-28T12:29:14.099Z,2908.12
2019-03-28T12:30:15.960Z,2913.75
2019-03-28T12:31:14.056Z,2964.38
2019-03-28T12:32:14.668Z,2598.75
2019-03-28T12:33:14.034Z,2328.75
2019-03-28T12:34:14.038Z,1625.62
2019-03-28T12:35:14.013Z,1181.25
2019-03-28T12:36:14.003Z,1080.00
2019-03-28T12:37:13.991Z,826.88
2019-03-28T12:38:19.003Z,652.50
2019-03-28T12:39:15.671Z,545.62
2019-03-28T12:40:13.964Z,393.75
2019-03-28T12:41:13.947Z,421.88
2019-03-28T12:42:13.932Z,388.12
2019-03-28T12:43:13.923Z,427.50
2019-03-28T12:44:13.927Z,427.50
2019-03-28T12:45:13.904Z,461.25
2019-03-28T12:46:13.898Z,517.50